Time;durP1;ratioP1;P1;durP2;ratioP2;P2;SDS_P1;SDS_P2;PMS_P1;PMS_P2;Temp;Humidity;BMP_temperature;BMP_pressure;BME280_temperature;BME280_humidity;BME280_pressure;Samples;Min_cycle;Max_cycle;Signal;HPM_P1;HPM_P2
2021/12/08 00:00:43;;;;;;;48.58;24.23;;;;;;;-2.95;81.65;100732.35;1702554;84;21383;-73
2021/12/08 00:03:12;;;;;;;41.75;22.75;;;;;;;-2.95;81.66;100724.77;1701171;83;22182;-73
2021/12/08 00:05:41;;;;;;;43.73;22.75;;;;;;;-2.93;81.71;100728.22;1700468;84;22092;-73
2021/12/08 00:08:10;;;;;;;41.75;22.58;;;;;;;-3.04;81.68;100710.95;1700798;84;20988;-73
2021/12/08 00:13:33;;;;;;;42.40;22.82;;;;;;;-2.92;81.62;100725.75;1718571;83;21071;-73
2021/12/08 00:16:04;;;;;;;44.15;22.85;;;;;;;-2.92;81.63;100717.30;1719951;83;22144;-73
2021/12/08 00:18:47;;;;;;;39.35;20.20;;;;;;;-2.94;81.58;100720.17;1718127;83;21119;-73
2021/12/08 00:21:12;;;;;;;39.80;20.68;;;;;;;-2.97;81.55;100712.05;1715492;83;21876;-73
2021/12/08 00:23:39;;;;;;;38.10;18.87;;;;;;;-2.98;81.57;100715.39;1718394;83;21055;-73
2021/12/08 00:26:06;;;;;;;41.48;20.55;;;;;;;-3.00;81.58;100710.27;1718591;83;22232;-73
2021/12/08 00:28:33;;;;;;;43.08;21.23;;;;;;;-2.98;81.61;100706.53;1718958;83;22226;-73
2021/12/08 00:31:03;;;;;;;42.48;20.40;;;;;;;-2.98;81.61;100705.27;1689983;83;21139;-73
2021/12/08 00:33:31;;;;;;;45.20;20.68;;;;;;;-2.97;81.61;100706.13;1676212;83;20881;-73
2021/12/08 00:36:04;;;;;;;39.05;20.00;;;;;;;-2.97;81.58;100701.08;1719001;82;21535;-73
2021/12/08 00:38:32;;;;;;;38.42;18.87;;;;;;;-2.98;81.63;100705.27;1718200;82;21432;-73
2021/12/08 00:40:59;;;;;;;37.95;19.25;;;;;;;-2.98;81.57;100703.14;1713365;83;21607;-73
2021/12/08 00:43:31;;;;;;;38.67;19.65;;;;;;;-2.99;81.59;100703.55;1718083;83;21046;-73
2021/12/08 00:45:57;;;;;;;40.45;20.52;;;;;;;-2.99;81.62;100697.22;1718331;83;21511;-73
2021/12/08 00:48:24;;;;;;;36.95;20.40;;;;;;;-2.96;81.67;100700.27;1718760;83;27118;-73
2021/12/08 00:50:51;;;;;;;45.15;20.02;;;;;;;-2.95;81.65;100700.33;1718414;83;21047;-73
2021/12/08 00:53:18;;;;;;;37.25;18.12;;;;;;;-2.94;81.64;100702.46;1717949;83;21080;-73
2021/12/08 00:55:44;;;;;;;46.58;21.50;;;;;;;-2.93;81.62;100706.31;1720350;83;21440;-73
2021/12/08 00:58:13;;;;;;;41.68;21.27;;;;;;;-2.91;81.62;100711.44;1717928;83;21088;-73
2021/12/08 01:00:45;;;;;;;39.85;19.23;;;;;;;-2.91;81.61;100716.50;1715907;82;22311;-73
2021/12/08 01:03:14;;;;;;;40.03;19.85;;;;;;;-2.91;81.60;100712.30;1717381;82;21598;-73
2021/12/08 01:05:46;;;;;;;37.35;18.90;;;;;;;-2.88;81.62;100731.80;1718010;83;21091;-73
2021/12/08 01:08:13;;;;;;;32.13;18.07;;;;;;;-2.88;81.63;100736.45;1717600;83;21046;-73
2021/12/08 01:10:42;;;;;;;36.33;19.40;;;;;;;-2.87;81.62;100736.92;1717072;83;20878;-73
2021/12/08 01:13:12;;;;;;;41.25;19.37;;;;;;;-2.85;81.61;100744.57;1701196;84;21055;-73
2021/12/08 01:15:43;;;;;;;37.53;18.70;;;;;;;-2.84;81.61;100734.51;1700359;84;21060;-73
2021/12/08 01:18:10;;;;;;;38.83;18.85;;;;;;;-2.84;81.62;100731.11;1700834;84;21565;-73
2021/12/08 01:20:37;;;;;;;33.30;17.42;;;;;;;-2.82;81.64;100737.10;1701166;84;21073;-73
2021/12/08 01:23:13;;;;;;;38.15;20.55;;;;;;;-2.82;81.62;100732.91;1700932;83;21397;-73
2021/12/08 01:25:39;;;;;;;34.78;17.50;;;;;;;-2.80;81.65;100730.44;1701085;83;21035;-73
2021/12/08 01:28:06;;;;;;;36.65;19.20;;;;;;;-2.78;81.64;100730.09;1700246;84;21102;-73
2021/12/08 01:30:33;;;;;;;44.15;20.05;;;;;;;-2.78;81.64;100728.42;1700543;83;21049;-73
2021/12/08 01:32:59;;;;;;;35.83;18.57;;;;;;;-2.76;81.67;100729.75;1701317;83;21060;-73
2021/12/08 01:35:27;;;;;;;38.00;19.05;;;;;;;-2.74;81.69;100729.02;1699892;83;21103;-73
2021/12/08 01:37:54;;;;;;;34.90;18.50;;;;;;;-2.70;81.72;100733.79;1705686;82;21135;-73
2021/12/08 01:40:21;;;;;;;33.13;17.52;;;;;;;-2.68;81.69;100733.05;1711234;81;20980;-73
2021/12/08 01:42:51;;;;;;;;;;;;;;;-2.68;81.67;100726.72;1694854;82;21123;-73
2021/12/08 01:48:11;;;;;;;36.88;17.87;;;;;;;-2.64;81.68;100716.72;1711136;82;21055;-73
2021/12/08 01:50:41;;;;;;;32.88;17.90;;;;;;;-2.64;81.68;100718.84;1712766;82;21654;-73
2021/12/08 01:53:09;;;;;;;39.40;19.87;;;;;;;-2.62;81.70;100710.05;1703563;82;21056;-73
2021/12/08 01:55:38;;;;;;;42.27;18.80;;;;;;;-2.61;81.68;100713.04;1700585;82;21073;-73
2021/12/08 01:58:06;;;;;;;38.53;18.87;;;;;;;-2.61;81.65;100701.65;1707625;82;21033;-73
2021/12/08 02:00:46;;;;;;;40.67;19.73;;;;;;;-2.60;81.68;100698.31;1713912;82;21007;-73
2021/12/08 02:03:18;;;;;;;39.20;19.15;;;;;;;-2.58;81.70;100692.88;1696714;82;21123;-73
2021/12/08 02:05:46;;;;;;;32.88;17.87;;;;;;;-2.57;81.69;100675.61;1689375;82;21141;-73
2021/12/08 02:08:13;;;;;;;37.15;17.95;;;;;;;-2.56;81.70;100671.88;1709279;82;21048;-73
2021/12/08 02:10:42;;;;;;;31.07;18.45;;;;;;;-2.55;81.71;100672.73;1727444;82;21489;-73
2021/12/08 02:13:09;;;;;;;33.00;18.00;;;;;;;-2.55;81.70;100666.41;1723352;82;21043;-73
2021/12/08 02:15:37;;;;;;;38.28;19.00;;;;;;;-2.54;81.70;100668.13;1704409;82;21022;-73
2021/12/08 02:18:09;;;;;;;37.60;19.57;;;;;;;-2.54;81.67;100654.22;1713286;82;21063;-73
2021/12/08 02:20:36;;;;;;;37.93;19.45;;;;;;;-2.55;81.65;100651.22;1722457;82;21035;-73
2021/12/08 02:23:03;;;;;;;43.60;20.25;;;;;;;-2.55;81.70;100651.22;1731553;82;21046;-73
2021/12/08 02:25:29;;;;;;;38.53;20.48;;;;;;;-2.54;81.72;100643.69;1724290;82;20984;-73
2021/12/08 02:27:59;;;;;;;40.33;20.77;;;;;;;-2.53;81.70;100641.61;1711856;82;21515;-73
2021/12/08 02:30:35;;;;;;;39.75;19.30;;;;;;;-2.53;81.67;100640.34;1713130;82;20985;-73
2021/12/08 02:47:06;;;;;;;37.53;18.35;;;;;;;-2.46;81.69;100635.11;1647574;85;21108;-73
2021/12/08 02:49:22;;;;;;;29.45;17.37;;;;;;;-2.48;81.65;100627.86;1659479;85;21089;-73
2021/12/08 02:51:51;;;;;;;31.30;17.02;;;;;;;-2.50;81.66;100630.34;1668417;85;21069;-73
2021/12/08 02:54:20;;;;;;;32.55;17.67;;;;;;;-2.50;81.67;100624.00;1662934;85;21100;-73
2021/12/08 02:56:46;;;;;;;33.08;17.10;;;;;;;-2.51;81.67;100618.89;1630675;85;21140;-73
2021/12/08 02:59:14;;;;;;;34.48;16.35;;;;;;;-2.51;81.68;100624.81;1689383;83;21479;-73
2021/12/08 03:01:41;;;;;;;30.52;17.27;;;;;;;-2.51;81.69;100623.55;1698821;82;21194;-73
2021/12/08 03:04:09;;;;;;;36.30;18.17;;;;;;;-2.52;81.67;100620.56;1706956;82;20976;-73
2021/12/08 03:06:36;;;;;;;30.77;17.62;;;;;;;-2.52;81.67;100619.70;1703392;82;21080;-73
2021/12/08 03:09:06;;;;;;;36.98;18.70;;;;;;;-2.51;81.71;100616.36;1695943;84;21076;-73
2021/12/08 03:11:32;;;;;;;31.12;16.65;;;;;;;-2.51;81.73;100616.36;1679939;84;21095;-73
2021/12/08 03:14:13;;;;;;;38.30;17.82;;;;;;;-2.51;81.70;100608.36;1662731;85;21609;-73
2021/12/08 03:16:44;;;;;;;34.50;18.87;;;;;;;-2.50;81.68;100604.16;1657433;85;21061;-73
2021/12/08 03:19:23;;;;;;;30.17;17.90;;;;;;;-2.52;81.63;100586.78;1658063;85;21104;-73
2021/12/08 03:21:49;;;;;;;34.13;17.07;;;;;;;-2.54;81.66;100590.93;1647432;85;21081;-73
2021/12/08 03:27:07;;;;;;;34.00;18.30;;;;;;;-2.59;81.58;100581.91;1662873;85;21092;-73
2021/12/08 03:29:30;;;;;;;37.28;19.98;;;;;;;-2.62;81.62;100575.50;1725558;82;21004;-73
2021/12/08 03:32:11;;;;;;;34.78;17.70;;;;;;;-2.62;81.63;100575.91;1716167;82;21146;-73
2021/12/08 03:34:41;;;;;;;38.40;17.50;;;;;;;-2.65;81.59;100574.53;1737818;82;21109;-73
2021/12/08 03:37:10;;;;;;;34.15;17.87;;;;;;;-2.68;81.63;100567.28;1682730;83;21068;-73
2021/12/08 03:39:41;;;;;;;35.35;17.82;;;;;;;-2.70;81.61;100550.31;1641180;85;21093;-73
2021/12/08 03:42:09;;;;;;;33.13;17.67;;;;;;;-2.70;81.62;100548.65;1651265;85;21585;-73
2021/12/08 03:44:38;;;;;;;29.00;16.82;;;;;;;-2.71;81.61;100542.27;1640080;85;21092;-73
2021/12/08 03:47:13;;;;;;;28.52;17.45;;;;;;;-2.74;81.61;100540.89;1675279;85;21109;-73
2021/12/08 03:49:34;;;;;;;37.13;17.70;;;;;;;-2.75;81.61;100536.64;1662177;84;21061;-73
2021/12/08 03:52:04;;;;;;;31.90;17.95;;;;;;;-2.77;81.61;100526.45;1662752;84;21085;-73
2021/12/08 03:54:31;;;;;;;33.78;17.45;;;;;;;-2.77;81.64;100528.13;1661922;84;21136;-73
2021/12/08 03:56:59;;;;;;;29.82;16.65;;;;;;;-2.77;81.64;100530.26;1671064;85;21128;-73
2021/12/08 03:59:29;;;;;;;30.92;17.07;;;;;;;-2.80;81.59;100525.48;1671842;84;21049;-73
2021/12/08 04:01:56;;;;;;;28.90;16.85;;;;;;;-2.81;81.60;100528.42;1711339;82;21039;-73
2021/12/08 04:04:27;;;;;;;31.40;18.45;;;;;;;-2.83;81.62;100522.44;1726293;82;21040;-73
2021/12/08 04:06:52;;;;;;;31.85;18.02;;;;;;;-2.81;81.64;100529.69;1705940;82;20982;-73
2021/12/08 04:09:30;;;;;;;32.15;18.02;;;;;;;-2.82;81.51;100518.25;1726069;82;20971;-73
2021/12/08 04:11:54;;;;;;;32.42;17.67;;;;;;;-2.84;81.58;100520.72;1710967;82;21055;-73
2021/12/08 04:14:25;;;;;;;33.23;18.30;;;;;;;-2.87;81.73;100509.22;1710515;82;21106;-73
2021/12/08 04:17:06;;;;;;;38.20;18.10;;;;;;;-2.88;81.57;100506.64;1713688;82;21093;-73
2021/12/08 04:19:35;;;;;;;30.50;16.50;;;;;;;-2.89;81.57;100504.91;1727574;82;21084;-73
2021/12/08 04:22:13;;;;;;;34.38;18.00;;;;;;;-2.91;81.62;100509.05;1687721;82;20967;-73
2021/12/08 04:24:46;;;;;;;33.83;17.77;;;;;;;-2.92;81.57;100501.01;1717172;82;21015;-73
2021/12/08 04:27:23;;;;;;;35.03;18.90;;;;;;;-2.94;81.37;100497.56;1692927;83;21148;-73
2021/12/08 04:29:50;;;;;;;33.18;18.85;;;;;;;-2.96;81.60;100498.77;1716029;82;21087;-73
2021/12/08 04:32:19;;;;;;;33.15;19.37;;;;;;;-2.98;81.58;100496.59;1703378;82;20987;-73
2021/12/08 04:34:50;;;;;;;36.98;20.60;;;;;;;-2.97;81.53;100503.77;1748641;82;21024;-73
2021/12/08 04:37:26;;;;;;;40.67;20.70;;;;;;;-2.95;81.65;100504.69;1741717;82;21098;-73
2021/12/08 04:40:18;;;;;;;38.92;21.10;;;;;;;-2.95;81.64;100503.02;1716184;82;21325;-73
2021/12/08 04:42:48;;;;;;;38.28;21.07;;;;;;;-2.94;81.60;100506.41;1675687;84;21048;-73
2021/12/08 04:45:08;;;;;;;43.75;21.57;;;;;;;-2.96;81.62;100503.83;1668603;84;21083;-73
2021/12/08 04:47:45;;;;;;;39.15;21.62;;;;;;;-2.96;81.68;100501.30;1681751;84;21084;-73
2021/12/08 04:53:00;;;;;;;35.25;19.90;;;;;;;-2.99;81.52;100507.52;1684353;84;21119;-73
2021/12/08 05:01:34;;;;;;;38.35;21.68;;;;;;;-3.16;81.60;100485.83;1717879;82;21076;-73
2021/12/08 05:06:40;;;;;;;39.25;22.13;;;;;;;-3.04;81.64;100506.08;1688601;82;21084;-73
2021/12/08 05:09:17;;;;;;;39.18;20.40;;;;;;;-3.11;81.66;100493.15;1691720;83;21107;-73
2021/12/08 05:11:51;;;;;;;33.88;18.75;;;;;;;-3.05;81.58;100501.83;1714592;82;21084;-74
2021/12/08 05:14:29;;;;;;;36.60;19.92;;;;;;;-3.07;81.59;100504.70;1724600;82;21037;-74
2021/12/08 05:17:00;;;;;;;29.90;17.05;;;;;;;-3.08;81.67;100506.77;1716504;82;20948;-76
2021/12/08 05:19:31;;;;;;;29.12;17.45;;;;;;;-3.11;81.60;100486.83;1703457;82;20916;-76
2021/12/08 05:22:02;;;;;;;31.95;17.32;;;;;;;-3.11;81.60;100486.83;1703282;82;20916;-75
2021/12/08 05:24:37;;;;;;;29.18;16.62;;;;;;;-3.14;81.43;100483.81;1689311;82;20917;-75
2021/12/08 05:27:09;;;;;;;28.38;17.45;;;;;;;-3.14;81.43;100483.81;1694547;83;21382;-75
2021/12/08 05:29:44;;;;;;;29.45;17.57;;;;;;;-3.15;81.54;100493.88;1688255;82;20881;-75
2021/12/08 05:32:11;;;;;;;32.33;17.67;;;;;;;-3.17;81.37;100492.95;1694372;82;20898;-75
2021/12/08 05:34:40;;;;;;;30.75;17.30;;;;;;;-3.19;81.43;100495.42;1688767;82;21113;-75
2021/12/08 05:37:10;;;;;;;28.07;18.07;;;;;;;-3.19;81.55;100500.89;1697218;84;21032;-75
2021/12/08 05:39:37;;;;;;;35.63;18.45;;;;;;;-3.19;81.55;100499.62;1705484;82;21085;-75
2021/12/08 05:42:12;;;;;;;32.03;18.35;;;;;;;-3.19;81.61;100499.62;1695760;82;20910;-75
2021/12/08 05:44:40;;;;;;;32.05;18.55;;;;;;;-3.17;81.66;100500.55;1683394;84;20917;-76
2021/12/08 05:47:12;;;;;;;30.37;18.27;;;;;;;-3.17;81.58;100498.88;1704450;82;20873;-76
2021/12/08 05:49:39;;;;;;;30.30;17.95;;;;;;;-3.16;81.64;100494.28;1704027;82;20908;-76
2021/12/08 05:52:08;;;;;;;34.18;18.90;;;;;;;-3.16;81.56;100489.62;1698977;82;21331;-75
2021/12/08 05:54:39;;;;;;;33.40;19.17;;;;;;;-3.15;81.60;100482.50;1676630;84;20964;-75
2021/12/08 05:57:13;;;;;;;38.35;20.55;;;;;;;-3.15;81.61;100478.30;1665001;84;20983;-76
2021/12/08 05:59:41;;;;;;;37.48;21.05;;;;;;;-3.11;81.65;100480.11;1660996;84;20945;-76
2021/12/08 06:02:15;;;;;;;35.73;20.75;;;;;;;-3.11;81.61;100482.63;1668054;84;20941;-72
2021/12/08 06:04:43;;;;;;;38.15;21.70;;;;;;;-3.21;81.60;100472.16;1694188;82;20905;-72
2021/12/08 06:07:11;;;;;;;35.00;20.65;;;;;;;-3.10;81.60;100494.47;1724124;82;20954;-72
2021/12/08 06:09:39;;;;;;;39.92;21.07;;;;;;;-3.10;81.59;100492.34;1692631;82;21626;-72
2021/12/08 06:12:09;;;;;;;38.05;21.42;;;;;;;-3.10;81.60;100497.41;1698973;82;21815;-72
2021/12/08 06:14:36;;;;;;;40.38;21.20;;;;;;;-3.21;81.56;100479.34;1689343;82;20925;-72
2021/12/08 06:17:11;;;;;;;40.55;21.17;;;;;;;-3.18;81.53;100484.91;1704834;82;20933;-72
2021/12/08 06:19:40;;;;;;;36.48;20.00;;;;;;;-3.20;81.55;100478.94;1722070;82;20953;-72
2021/12/08 06:22:10;;;;;;;35.10;19.40;;;;;;;-3.17;81.54;100487.91;1704826;81;20965;-72
2021/12/08 06:24:36;;;;;;;37.78;19.32;;;;;;;-3.17;81.57;100492.55;1704316;82;20898;-72
2021/12/08 06:27:03;;;;;;;;;;;;;;;-3.18;81.59;100492.09;1727081;82;20909;-72
2021/12/08 06:29:30;;;;;;;37.78;18.80;;;;;;;-3.19;81.56;100499.62;1719602;82;20103;-72
2021/12/08 06:32:01;;;;;;;35.38;19.67;;;;;;;-3.19;81.58;100500.89;1704280;82;20914;-71
2021/12/08 06:34:29;;;;;;;33.65;18.67;;;;;;;-3.23;81.52;100493.59;1706746;82;20924;-71
2021/12/08 06:37:01;;;;;;;32.85;18.62;;;;;;;-3.25;81.55;100498.13;1722374;82;20910;-72
2021/12/08 06:39:43;;;;;;;28.02;17.62;;;;;;;-3.28;81.53;100493.82;1716328;81;20901;-71
2021/12/08 06:42:15;;;;;;;32.80;17.82;;;;;;;-3.31;81.49;100483.59;1703255;82;21672;-72
2021/12/08 06:44:46;;;;;;;34.35;18.92;;;;;;;-3.33;81.55;100482.67;1685966;84;21055;-72
2021/12/08 06:47:17;;;;;;;37.08;20.15;;;;;;;-3.38;81.60;100478.70;1685791;84;20999;-72
2021/12/08 06:49:45;;;;;;;34.05;19.80;;;;;;;-3.31;81.66;100482.33;1657296;84;20937;-72
2021/12/08 06:52:17;;;;;;;37.13;20.65;;;;;;;-3.28;81.65;100491.70;1671806;84;20934;-72
2021/12/08 06:54:49;;;;;;;35.95;19.90;;;;;;;-3.29;81.59;100489.56;1695667;82;20901;-72
2021/12/08 06:57:21;;;;;;;36.90;19.50;;;;;;;-3.26;81.50;100496.41;1700382;82;20912;-72
2021/12/08 07:00:11;;;;;;;34.38;19.17;;;;;;;-3.26;81.50;100496.41;1705438;82;20912;-72
2021/12/08 07:03:01;;;;;;;30.85;17.52;;;;;;;-3.26;81.60;100498.94;1702440;82;20909;-72
2021/12/08 07:05:10;;;;;;;29.77;17.62;;;;;;;-3.25;81.61;100495.20;1676892;82;20909;-72
2021/12/08 07:07:29;;;;;;;34.18;18.27;;;;;;;-3.25;81.60;100495.20;1685953;82;21347;-72
2021/12/08 07:10:07;;;;;;;26.73;16.57;;;;;;;-3.28;81.50;100497.61;1677665;84;20913;-72
2021/12/08 07:12:44;;;;;;;27.95;16.65;;;;;;;-3.31;81.51;100497.90;1715948;82;21120;-72
2021/12/08 07:15:28;;;;;;;26.90;16.30;;;;;;;-3.34;81.50;100498.64;1695562;82;21008;-72
2021/12/08 07:18:00;;;;;;;33.20;18.42;;;;;;;-3.37;81.42;100504.84;1690999;82;21512;-72
2021/12/08 07:20:43;;;;;;;28.85;16.20;;;;;;;-3.37;81.42;100504.84;1711235;82;21049;-72
2021/12/08 07:23:20;;;;;;;29.57;17.07;;;;;;;-3.37;81.60;100511.17;1703240;82;21027;-72
2021/12/08 07:25:48;;;;;;;29.87;17.17;;;;;;;-3.36;81.63;100509.09;1692675;82;21631;-72
2021/12/08 07:28:17;;;;;;;29.72;17.00;;;;;;;-3.42;81.59;100507.60;1712410;82;20956;-72
2021/12/08 07:30:54;;;;;;;28.80;15.85;;;;;;;-3.39;81.56;100519.95;1709304;82;20937;-72
2021/12/08 07:33:22;;;;;;;32.13;16.73;;;;;;;-3.41;81.55;100527.02;1717625;82;20904;-72
2021/12/08 07:35:53;;;;;;;28.62;16.25;;;;;;;-3.49;81.65;100509.03;1675202;82;20873;-72
2021/12/08 07:38:23;;;;;;;25.02;15.32;;;;;;;-3.43;81.59;100524.44;1703490;82;20922;-72
2021/12/08 07:41:10;;;;;;;24.70;14.45;;;;;;;-3.44;81.55;100523.97;1701482;82;20905;-72
2021/12/08 07:43:41;;;;;;;26.23;15.13;;;;;;;-3.48;81.57;100539.82;1705905;82;20920;-72
2021/12/08 07:46:25;;;;;;;24.95;15.20;;;;;;;-3.53;81.79;100538.78;1701449;82;20945;-72
2021/12/08 07:48:57;;;;;;;27.48;16.67;;;;;;;-3.53;81.79;100538.78;1684284;82;20913;-72
2021/12/08 07:51:28;;;;;;;25.08;14.73;;;;;;;-3.54;81.57;100523.55;1713051;82;20936;-72
2021/12/08 07:53:56;;;;;;;27.10;15.98;;;;;;;-3.55;81.58;100520.56;1705706;82;21330;-72
2021/12/08 07:56:24;;;;;;;28.15;16.07;;;;;;;-3.56;81.58;100522.63;1702299;82;20862;-72
2021/12/08 07:58:56;;;;;;;22.98;15.30;;;;;;;-3.55;81.63;100528.15;1675882;84;20940;-72
2021/12/08 08:01:27;;;;;;;23.73;14.55;;;;;;;-3.53;81.81;100516.03;1668541;85;20926;-72
2021/12/08 08:03:54;;;;;;;27.48;16.60;;;;;;;-3.53;81.81;100516.03;1659625;84;20935;-72
2021/12/08 08:06:29;;;;;;;28.42;15.60;;;;;;;-3.51;81.59;100518.63;1652627;85;21085;-72
2021/12/08 08:08:56;;;;;;;27.93;16.15;;;;;;;-3.51;81.63;100521.15;1659688;85;21470;-72
2021/12/08 08:11:28;;;;;;;29.00;16.32;;;;;;;-3.50;81.55;100515.29;1644586;85;20918;-72
2021/12/08 08:13:55;;;;;;;28.00;16.65;;;;;;;-3.47;81.68;100515.41;1651696;84;20929;-72
2021/12/08 08:16:26;;;;;;;30.05;16.40;;;;;;;-3.44;81.66;100510.47;1652932;84;20935;-72
2021/12/08 08:19:03;;;;;;;29.72;18.37;;;;;;;-3.43;81.65;100515.98;1640621;85;20962;-72
2021/12/08 08:21:31;;;;;;;30.32;17.62;;;;;;;-3.41;81.70;100517.77;1655051;84;21391;-72
2021/12/08 08:24:00;;;;;;;32.10;18.50;;;;;;;-3.38;81.69;100524.61;1630884;86;20936;-72
2021/12/08 08:26:29;;;;;;;31.70;18.87;;;;;;;-3.35;81.82;100516.74;1660925;84;20960;-72
2021/12/08 08:28:57;;;;;;;31.40;17.77;;;;;;;-3.31;81.75;100509.28;1656583;86;20887;-72
2021/12/08 08:31:35;;;;;;;29.60;18.37;;;;;;;-3.29;81.73;100518.64;1636560;86;20936;-72
2021/12/08 08:34:02;;;;;;;31.40;17.85;;;;;;;-3.25;81.72;100517.09;1719563;82;20855;-72
2021/12/08 08:36:34;;;;;;;33.15;20.00;;;;;;;-3.24;81.72;100521.34;1702586;82;20905;-72
2021/12/08 08:39:11;;;;;;;36.00;20.55;;;;;;;-3.23;81.70;100521.41;1702447;82;20893;-72
2021/12/08 08:41:44;;;;;;;34.67;19.30;;;;;;;-3.20;81.75;100528.24;1698733;82;20916;-72
2021/12/08 08:44:16;;;;;;;30.65;18.95;;;;;;;-3.18;81.79;100526.63;1712633;82;21360;-71
2021/12/08 08:46:45;;;;;;;31.93;18.37;;;;;;;-3.18;81.69;100530.42;1721029;82;20894;-72
2021/12/08 08:49:20;;;;;;;28.27;17.92;;;;;;;-3.18;81.70;100530.02;1705649;82;21339;-72
2021/12/08 08:51:59;;;;;;;29.92;18.05;;;;;;;-3.17;81.72;100530.48;1710964;82;20931;-72
2021/12/08 08:54:24;;;;;;;34.13;18.30;;;;;;;-3.15;81.73;100528.87;1708803;82;21348;-72
2021/12/08 08:57:10;;;;;;;29.00;18.12;;;;;;;-3.13;81.73;100530.20;1705311;82;21008;-72
2021/12/08 08:59:45;;;;;;;29.77;18.90;;;;;;;-3.10;81.74;100526.48;1701324;82;20917;-72
2021/12/08 09:02:18;;;;;;;33.85;18.87;;;;;;;-3.08;81.75;100537.12;1714454;82;20996;-72
2021/12/08 09:04:52;;;;;;;31.90;17.85;;;;;;;-3.07;81.77;100530.39;1706212;82;21390;-72
2021/12/08 09:07:25;;;;;;;32.45;18.17;;;;;;;-3.06;81.72;100525.39;1702533;84;20940;-72
2021/12/08 09:09:55;;;;;;;28.77;16.93;;;;;;;-3.05;81.73;100523.73;1714283;82;21529;-72
2021/12/08 09:12:29;;;;;;;33.02;18.45;;;;;;;-3.03;81.79;100529.70;1699537;82;20948;-72
2021/12/08 09:15:10;;;;;;;33.05;18.00;;;;;;;-2.98;81.82;100523.55;1701240;82;20933;-72
2021/12/08 09:17:41;;;;;;;30.37;17.12;;;;;;;-2.95;81.83;100516.08;1699718;82;21510;-72
2021/12/08 09:20:20;;;;;;;30.27;17.65;;;;;;;-2.92;81.77;100513.66;1694593;82;21574;-72
2021/12/08 09:22:55;;;;;;;28.83;17.02;;;;;;;-2.92;81.72;100519.98;1699681;82;21718;-72
2021/12/08 09:25:25;;;;;;;29.18;17.75;;;;;;;-2.91;81.78;100513.71;1701182;82;21687;-72
2021/12/08 09:27:56;;;;;;;29.85;17.42;;;;;;;-2.88;81.84;100508.77;1700049;82;21473;-72
2021/12/08 09:30:36;;;;;;;33.55;17.60;;;;;;;-2.84;81.84;100511.86;1697002;82;20909;-72
2021/12/08 09:33:11;;;;;;;27.55;16.52;;;;;;;-2.80;81.82;100510.30;1700122;82;21056;-72
2021/12/08 09:35:49;;;;;;;30.75;17.10;;;;;;;-2.79;81.81;100504.03;1697078;82;21542;-72
2021/12/08 09:38:26;;;;;;;29.50;17.75;;;;;;;-2.73;81.85;100505.92;1709095;82;20874;-72
2021/12/08 09:41:04;;;;;;;33.18;18.60;;;;;;;-2.69;81.86;100500.16;1689939;82;21032;-72
2021/12/08 09:43:36;;;;;;;35.52;18.80;;;;;;;-2.69;81.77;100495.10;1710232;82;20948;-72
2021/12/08 09:46:08;;;;;;;30.92;18.05;;;;;;;-2.70;81.71;100492.98;1704360;82;21398;-72
2021/12/08 09:48:39;;;;;;;28.87;17.50;;;;;;;-2.69;81.75;100491.31;1697489;82;21402;-72
2021/12/08 09:51:14;;;;;;;33.10;17.92;;;;;;;-2.70;81.73;100477.80;1675177;82;20918;-73
2021/12/08 09:53:46;;;;;;;36.68;17.98;;;;;;;-2.69;81.80;100484.98;1691399;82;21469;-72
2021/12/08 09:56:13;;;;;;;32.23;18.23;;;;;;;-2.67;81.79;100480.83;1679302;84;20908;-72
2021/12/08 09:58:40;;;;;;;34.35;19.75;;;;;;;-2.68;81.74;100475.31;1659457;84;20977;-72
2021/12/08 10:01:13;;;;;;;35.00;20.17;;;;;;;-2.70;81.74;100464.28;1655275;84;20973;-72
2021/12/08 10:03:45;;;;;;;34.48;18.98;;;;;;;-2.71;81.76;100469.74;1663506;84;21387;-72
2021/12/08 10:06:13;;;;;;;29.60;17.05;;;;;;;-2.71;81.76;100469.74;1667788;84;21115;-72
2021/12/08 10:08:43;;;;;;;33.65;19.80;;;;;;;-2.71;81.75;100462.16;1659211;84;21069;-72
2021/12/08 10:11:11;;;;;;;33.70;19.85;;;;;;;-2.72;81.76;100460.43;1707167;82;21355;-72
2021/12/08 10:13:40;;;;;;;35.95;21.17;;;;;;;-2.71;81.80;100446.97;1714371;82;21470;-72
2021/12/08 10:16:08;;;;;;;33.30;18.90;;;;;;;-2.72;81.76;100445.25;1694980;82;20901;-72
2021/12/08 10:18:35;;;;;;;36.15;19.65;;;;;;;-2.72;81.76;100445.25;1698352;82;21589;-72
2021/12/08 10:21:04;;;;;;;32.53;18.20;;;;;;;-2.71;81.81;100452.03;1706194;82;21029;-72
2021/12/08 10:23:38;;;;;;;33.38;19.23;;;;;;;-2.70;81.79;100450.36;1702006;82;21488;-72
2021/12/08 10:26:18;;;;;;;36.60;21.25;;;;;;;-2.70;81.79;100448.69;1716381;82;21525;-72
2021/12/08 10:28:53;;;;;;;33.88;19.57;;;;;;;-2.68;81.86;100437.36;1697311;82;20913;-72
2021/12/08 10:31:29;;;;;;;37.38;19.82;;;;;;;-2.66;81.86;100438.27;1710301;82;20909;-72
2021/12/08 10:34:06;;;;;;;34.50;20.02;;;;;;;-2.64;81.85;100436.66;1670151;84;21423;-72
2021/12/08 10:36:47;;;;;;;35.08;20.62;;;;;;;-2.62;81.84;100431.64;1681104;84;27137;-72
2021/12/08 10:39:37;;;;;;;36.50;21.57;;;;;;;-2.61;81.81;100424.51;1708659;82;20999;-72
2021/12/08 10:42:26;;;;;;;33.40;20.23;;;;;;;-2.61;81.81;100420.30;1711891;82;21041;-72
2021/12/08 10:45:11;;;;;;;42.03;24.35;;;;;;;-2.59;81.81;100419.92;1684095;82;21001;-72
2021/12/08 10:47:44;;;;;;;37.55;21.62;;;;;;;-2.59;81.79;100410.20;1706097;82;21083;-72
2021/12/08 10:56:03;;;;;;;39.15;22.02;;;;;;;-2.65;81.78;100401.17;1713220;82;21558;-72
2021/12/08 10:58:36;;;;;;;43.25;24.95;;;;;;;-2.66;81.80;100397.78;1705243;82;21107;-72
2021/12/08 11:01:19;;;;;;;44.67;26.10;;;;;;;-2.66;81.81;100392.72;1706274;82;22426;-72
2021/12/08 11:03:48;;;;;;;48.40;25.82;;;;;;;-2.70;81.72;100384.56;1707287;82;21322;-72
2021/12/08 11:06:17;;;;;;;41.90;22.93;;;;;;;-2.73;81.75;100388.26;1717909;82;21015;-72
2021/12/08 11:08:47;;;;;;;38.40;22.30;;;;;;;-2.76;81.72;100381.83;1712821;82;21096;-72
2021/12/08 11:11:30;;;;;;;;;;;;;;;-2.78;81.75;100388.51;1712595;82;21103;-72
2021/12/08 11:14:01;;;;;;;42.40;23.47;;;;;;;-2.79;81.73;100393.11;1712160;82;20144;-72
2021/12/08 11:16:35;;;;;;;38.78;21.37;;;;;;;-2.81;81.79;100390.53;1699366;82;21621;-72
2021/12/08 11:19:15;;;;;;;45.98;24.10;;;;;;;-2.82;81.81;100386.68;1703473;82;21076;-72
2021/12/08 11:21:56;;;;;;;37.85;21.45;;;;;;;-2.84;81.74;100392.09;1698103;82;21045;-72
2021/12/08 11:24:33;;;;;;;42.40;22.67;;;;;;;-2.89;81.70;100375.49;1684331;82;20984;-72
2021/12/08 11:27:08;;;;;;;38.28;20.97;;;;;;;-2.93;81.77;100379.13;1693381;82;21099;-72
2021/12/08 11:29:38;;;;;;;36.38;21.82;;;;;;;-2.93;81.80;100381.66;1698570;82;20906;-72
2021/12/08 11:32:08;;;;;;;38.28;20.88;;;;;;;-2.92;81.80;100379.19;1674650;83;20924;-72
2021/12/08 11:34:44;;;;;;;35.03;20.57;;;;;;;-2.91;81.78;100386.37;1658301;85;20975;-72
2021/12/08 11:37:16;;;;;;;38.55;21.45;;;;;;;-2.94;81.67;100391.32;1649678;84;20917;-72
2021/12/08 11:39:48;;;;;;;38.98;21.23;;;;;;;-3.04;81.62;100382.15;1658324;85;20957;-72
2021/12/08 11:42:24;;;;;;;37.13;21.42;;;;;;;-3.06;81.44;100382.50;1670683;84;20964;-73
2021/12/08 11:44:55;;;;;;;40.05;21.75;;;;;;;-3.07;81.73;100384.98;1658114;86;20946;-73
2021/12/08 11:47:27;;;;;;;37.10;20.80;;;;;;;-3.07;81.75;100376.13;1643217;86;20946;-73
2021/12/08 11:49:58;;;;;;;34.83;19.75;;;;;;;-3.08;81.71;100397.16;1698301;82;20957;-73
2021/12/08 11:52:33;;;;;;;37.15;20.52;;;;;;;-3.12;81.61;100376.41;1697101;82;20945;-73
2021/12/08 11:55:00;;;;;;;32.60;20.15;;;;;;;-3.16;81.65;100381.75;1694633;82;21398;-79
2021/12/08 11:57:39;;;;;;;33.95;20.43;;;;;;;-3.20;81.61;100373.60;1698435;82;21063;-74
2021/12/08 12:00:16;;;;;;;32.93;19.60;;;;;;;-3.22;81.62;100381.94;1725300;82;20907;-74
2021/12/08 12:02:52;;;;;;;34.48;19.87;;;;;;;-3.24;81.64;100393.66;1708283;82;20902;-75
2021/12/08 12:05:20;;;;;;;37.03;20.70;;;;;;;-3.25;81.67;100389.41;1694418;82;20968;-74
2021/12/08 12:07:48;;;;;;;31.70;19.67;;;;;;;-3.24;81.68;100393.66;1689667;82;20885;-74